Time;durP1;ratioP1;P1;durP2;ratioP2;P2;SDS_P1;SDS_P2;PMS_P1;PMS_P2;Temp;Humidity;BMP_temperature;BMP_pressure;BME280_temperature;BME280_humidity;BME280_pressure;Samples;Min_cycle;Max_cycle;Signal;HPM_P1;HPM_P2
2021/06/11 06:09:42;;;;;;;3.17;1.80;;;26.20;99.90;;;;;;4933737;23;20271;-74
2021/06/11 06:12:10;;;;;;;3.35;1.90;;;27.00;99.90;;;;;;4938278;29;20249;-75
2021/06/11 06:14:36;;;;;;;3.97;1.73;;;27.70;99.90;;;;;;4938205;29;20615;-74
2021/06/11 06:17:03;;;;;;;4.03;1.60;;;28.80;99.80;;;;;;4919415;29;20212;-75
2021/06/11 06:19:29;;;;;;;4.63;1.90;;;28.40;98.90;;;;;;4919177;29;20665;-75
2021/06/11 06:21:56;;;;;;;3.08;1.70;;;28.40;99.20;;;;;;4919083;29;20209;-75
2021/06/11 06:24:22;;;;;;;2.95;1.48;;;28.70;98.20;;;;;;4919375;29;20569;-75
2021/06/11 06:26:50;;;;;;;2.80;1.60;;;29.00;97.90;;;;;;4919055;29;20255;-75
2021/06/11 06:29:16;;;;;;;2.88;1.33;;;29.70;96.70;;;;;;4919474;29;20285;-74
2021/06/11 06:31:42;;;;;;;4.80;1.80;;;29.80;96.80;;;;;;4919606;29;20229;-76
2021/06/11 06:34:09;;;;;;;6.20;2.15;;;29.60;96.60;;;;;;4918998;29;20218;-76
2021/06/11 06:36:35;;;;;;;4.28;1.63;;;29.80;96.20;;;;;;4918702;29;20285;-76
2021/06/11 06:39:06;;;;;;;2.40;1.50;;;30.00;96.20;;;;;;4918633;29;20220;-75
2021/06/11 06:41:32;;;;;;;3.13;1.83;;;30.20;95.20;;;;;;4918451;29;20209;-76
2021/06/11 06:44:00;;;;;;;4.20;1.90;;;29.50;95.80;;;;;;4919017;29;20218;-75
2021/06/11 06:46:26;;;;;;;2.83;1.77;;;29.40;96.80;;;;;;4918697;29;20340;-76
2021/06/11 06:48:53;;;;;;;4.78;1.98;;;29.50;96.10;;;;;;4918646;29;20245;-76
2021/06/11 06:51:23;;;;;;;2.60;1.55;;;29.30;96.40;;;;;;4918626;29;20216;-75
2021/06/11 06:53:50;;;;;;;3.83;2.05;;;29.70;95.90;;;;;;4918473;29;20213;-75
2021/06/11 06:56:18;;;;;;;4.95;2.08;;;30.00;95.90;;;;;;4918544;29;20233;-76
2021/06/11 06:58:44;;;;;;;4.68;2.13;;;30.20;95.00;;;;;;4918602;29;20217;-76
2021/06/11 07:01:12;;;;;;;6.25;2.50;;;30.00;95.50;;;;;;4918459;29;20704;-76
2021/06/11 07:03:38;;;;;;;5.43;2.40;;;30.30;95.00;;;;;;4918450;29;20210;-76
2021/06/11 07:06:04;;;;;;;6.82;3.00;;;30.40;95.00;;;;;;4918263;29;20234;-76
2021/06/11 07:08:31;;;;;;;6.25;3.03;;;30.50;94.60;;;;;;4918553;29;20277;-77
2021/06/11 07:10:58;;;;;;;7.22;2.78;;;30.30;94.50;;;;;;4918321;29;20546;-76
2021/06/11 07:13:25;;;;;;;5.28;2.70;;;30.50;94.80;;;;;;4918474;29;20220;-76
2021/06/11 07:15:51;;;;;;;4.68;2.85;;;30.50;94.50;;;;;;4918265;29;20283;-76
2021/06/11 07:18:19;;;;;;;4.72;3.00;;;31.10;94.10;;;;;;4917139;29;20219;-76
2021/06/11 07:20:46;;;;;;;8.13;2.80;;;31.10;93.80;;;;;;4918093;29;20216;-75
2021/06/11 07:23:12;;;;;;;4.53;2.28;;;31.70;93.40;;;;;;4917826;29;20221;-75
2021/06/11 07:25:38;;;;;;;4.63;2.88;;;31.90;92.80;;;;;;4917898;29;20229;-75
2021/06/11 07:28:05;;;;;;;3.97;2.00;;;32.10;92.70;;;;;;4917909;29;20234;-74
2021/06/11 07:30:31;;;;;;;3.50;2.30;;;31.80;92.80;;;;;;4917718;29;20231;-76
2021/06/11 07:32:58;;;;;;;5.68;2.13;;;31.60;92.80;;;;;;4917759;29;20561;-74
2021/06/11 07:35:25;;;;;;;3.08;2.05;;;31.50;92.20;;;;;;4917865;29;20236;-75
2021/06/11 07:37:51;;;;;;;4.18;2.15;;;31.80;92.20;;;;;;4917851;29;20221;-75
2021/06/11 07:40:18;;;;;;;3.28;1.98;;;31.30;92.30;;;;;;4917418;29;20209;-75
2021/06/11 07:42:44;;;;;;;2.90;1.73;;;31.40;93.10;;;;;;4917595;29;20244;-75
2021/06/11 07:45:11;;;;;;;5.28;2.20;;;30.90;93.00;;;;;;4917664;29;20240;-73
2021/06/11 07:47:38;;;;;;;2.38;1.55;;;30.90;92.90;;;;;;4917681;29;20227;-75
2021/06/11 07:50:07;;;;;;;4.40;1.92;;;30.80;93.10;;;;;;4917224;29;20242;-76
2021/06/11 07:52:36;;;;;;;4.55;1.88;;;30.80;93.70;;;;;;4917533;29;20220;-75
2021/06/11 07:55:02;;;;;;;3.78;1.92;;;30.90;92.60;;;;;;4917289;29;20658;-75
2021/06/11 07:57:29;;;;;;;2.75;1.67;;;30.90;92.50;;;;;;4917530;29;20213;-75
2021/06/11 07:59:55;;;;;;;1.65;1.20;;;30.60;93.40;;;;;;4917529;29;20213;-74
2021/06/11 08:02:21;;;;;;;3.75;1.30;;;31.20;93.10;;;;;;4917144;29;20220;-75
2021/06/11 08:04:47;;;;;;;2.47;1.13;;;31.40;93.30;;;;;;4917437;29;20542;-75
2021/06/11 08:07:15;;;;;;;1.85;1.00;;;30.90;92.30;;;;;;4917565;29;20217;-75
2021/06/11 08:09:43;;;;;;;2.45;1.10;;;30.70;92.90;;;;;;4917032;29;20237;-75
2021/06/11 08:12:10;;;;;;;4.43;1.63;;;30.50;92.50;;;;;;4917225;29;20213;-75
2021/06/11 08:14:36;;;;;;;2.50;1.02;;;30.50;93.00;;;;;;4917004;29;20205;-75
2021/06/11 08:17:03;;;;;;;2.42;0.98;;;30.80;92.80;;;;;;4917118;29;20242;-75
2021/06/11 08:19:30;;;;;;;1.20;0.70;;;30.80;92.60;;;;;;4900015;29;20209;-74
2021/06/11 08:21:56;;;;;;;1.67;1.05;;;30.90;92.10;;;;;;4917357;29;20206;-75
2021/06/11 08:24:23;;;;;;;2.60;0.80;;;31.10;92.20;;;;;;4917131;29;20265;-76
2021/06/11 08:26:50;;;;;;;4.22;0.93;;;31.10;91.80;;;;;;4917023;29;20229;-75
2021/06/11 08:29:17;;;;;;;1.02;0.70;;;31.20;92.20;;;;;;4916992;29;20236;-75
2021/06/11 08:31:44;;;;;;;0.75;0.65;;;31.10;91.80;;;;;;4917225;29;20206;-75
2021/06/11 08:34:11;;;;;;;4.35;1.60;;;31.10;91.70;;;;;;4917069;29;20213;-75
2021/06/11 08:36:37;;;;;;;1.10;0.52;;;31.10;91.00;;;;;;4916820;29;20662;-75
2021/06/11 08:39:04;;;;;;;1.10;0.60;;;30.40;92.10;;;;;;4916792;29;20213;-76
2021/06/11 08:41:31;;;;;;;1.60;0.70;;;30.90;92.40;;;;;;4916817;29;20209;-74
2021/06/11 08:43:59;;;;;;;1.30;0.50;;;31.40;91.70;;;;;;4916816;29;20210;-75
2021/06/11 08:46:27;;;;;;;1.33;0.82;;;31.20;92.20;;;;;;4916473;29;20233;-75
2021/06/11 08:48:54;;;;;;;1.70;0.70;;;31.20;91.90;;;;;;4916913;29;20712;-76
2021/06/11 08:51:21;;;;;;;0.98;0.60;;;30.90;91.60;;;;;;4916737;29;20242;-75
2021/06/11 08:53:47;;;;;;;1.88;0.60;;;30.60;91.70;;;;;;4916735;29;20661;-76
2021/06/11 08:56:14;;;;;;;1.42;0.70;;;30.90;91.90;;;;;;4916460;29;20300;-74
2021/06/11 08:58:40;;;;;;;6.45;0.90;;;30.60;92.40;;;;;;4916713;29;20209;-75
2021/06/11 09:01:08;;;;;;;2.65;0.55;;;31.10;91.60;;;;;;4916844;29;20217;-75
2021/06/11 09:03:43;;;;;;;1.67;0.50;;;31.30;91.30;;;;;;4917754;29;20217;-75
2021/06/11 09:06:12;;;;;;;0.82;0.50;;;31.40;91.50;;;;;;4916466;29;20260;-75
2021/06/11 09:08:40;;;;;;;2.83;0.45;;;31.50;91.20;;;;;;4916476;29;20588;-76
2021/06/11 09:11:14;;;;;;;0.98;0.63;;;31.60;91.20;;;;;;4916396;29;20224;-76
2021/06/11 09:13:41;;;;;;;0.70;0.50;;;31.50;90.90;;;;;;4916636;29;20215;-75
2021/06/11 09:16:12;;;;;;;1.00;0.47;;;31.60;90.60;;;;;;4916619;29;20229;-75
2021/06/11 09:18:52;;;;;;;0.55;0.40;;;31.80;90.60;;;;;;4916459;29;20240;-75
2021/06/11 09:21:27;;;;;;;0.80;0.30;;;32.30;89.70;;;;;;4916431;29;20251;-75
2021/06/11 09:24:20;;;;;;;3.95;0.50;;;32.00;90.00;;;;;;4916264;29;20300;-76
2021/06/11 09:27:04;;;;;;;3.35;0.47;;;31.80;90.60;;;;;;4916024;29;20229;-75
2021/06/11 09:29:32;;;;;;;3.75;0.40;;;31.30;91.00;;;;;;4916296;29;20253;-75
2021/06/11 09:32:16;;;;;;;1.38;0.90;;;31.00;91.80;;;;;;4916039;29;20213;-75
2021/06/11 09:34:43;;;;;;;4.95;0.50;;;31.20;91.50;;;;;;4916458;29;20232;-75
2021/06/11 09:37:12;;;;;;;0.80;0.50;;;31.40;90.80;;;;;;4916151;29;20736;-75
2021/06/11 09:39:53;;;;;;;0.85;0.60;;;31.30;91.10;;;;;;4916334;29;20214;-75
2021/06/11 09:42:21;;;;;;;1.17;0.40;;;31.30;91.00;;;;;;4919866;29;20213;-74
2021/06/11 09:44:56;;;;;;;1.45;0.50;;;31.40;90.80;;;;;;4919919;29;20212;-75
2021/06/11 09:47:39;;;;;;;2.08;0.40;;;31.30;90.70;;;;;;4919686;29;20676;-74
2021/06/11 09:50:10;;;;;;;0.70;0.50;;;31.20;90.60;;;;;;4919835;29;20241;-76
2021/06/11 09:52:54;;;;;;;0.73;0.52;;;31.10;90.20;;;;;;4919591;29;20732;-75
2021/06/11 09:55:32;;;;;;;1.05;0.50;;;30.60;90.90;;;;;;4919542;29;20332;-76
2021/06/11 09:58:07;;;;;;;0.70;0.30;;;30.50;91.80;;;;;;4919726;29;20213;-76
2021/06/11 10:00:35;;;;;;;0.90;0.60;;;30.40;91.60;;;;;;4919735;29;20213;-76
2021/06/11 10:03:10;;;;;;;0.93;0.60;;;30.30;91.80;;;;;;4919461;29;20228;-76
2021/06/11 10:05:37;;;;;;;7.43;1.27;;;30.30;91.50;;;;;;4919362;29;20284;-77
2021/06/11 10:08:04;;;;;;;2.85;0.75;;;30.30;92.70;;;;;;4919458;29;20209;-76
2021/06/11 10:10:30;;;;;;;1.08;0.57;;;29.90;91.90;;;;;;4919427;29;20225;-76
2021/06/11 10:12:57;;;;;;;1.33;0.50;;;29.70;92.20;;;;;;4919570;29;20304;-75
2021/06/11 10:15:23;;;;;;;2.30;0.80;;;29.40;92.50;;;;;;4920573;29;20229;-76
2021/06/11 10:17:50;;;;;;;0.75;0.50;;;28.90;93.50;;;;;;4919271;29;20206;-77
2021/06/11 10:20:18;;;;;;;2.65;0.70;;;28.80;93.30;;;;;;4919157;29;20262;-77
2021/06/11 10:22:44;;;;;;;0.98;0.40;;;28.50;92.80;;;;;;4919271;29;20220;-76
2021/06/11 10:25:12;;;;;;;0.40;0.30;;;28.40;92.60;;;;;;4919177;29;20230;-76
2021/06/11 10:27:40;;;;;;;0.90;0.50;;;28.30;92.50;;;;;;4919053;29;20213;-76
2021/06/11 10:30:08;;;;;;;1.10;0.68;;;28.30;94.50;;;;;;4918806;29;20241;-74
2021/06/11 10:32:40;;;;;;;1.70;0.50;;;28.30;95.20;;;;;;4918853;29;20748;-76
2021/06/11 10:35:08;;;;;;;0.73;0.50;;;28.10;92.90;;;;;;4919230;29;20325;-76
2021/06/11 10:37:38;;;;;;;1.20;0.75;;;28.00;93.10;;;;;;4919040;29;20209;-75
2021/06/11 10:40:23;;;;;;;4.50;0.88;;;27.70;94.50;;;;;;4919549;29;20225;-76
2021/06/11 10:42:50;;;;;;;1.10;0.73;;;27.60;94.90;;;;;;4919165;29;20669;-76
2021/06/11 10:45:43;;;;;;;1.02;0.55;;;27.50;94.00;;;;;;4919688;29;20268;-77
2021/06/11 10:48:10;;;;;;;1.33;0.90;;;27.40;93.70;;;;;;4918826;29;20213;-76
2021/06/11 10:50:38;;;;;;;1.45;0.77;;;27.70;94.00;;;;;;4918799;29;20217;-76
2021/06/11 10:53:11;;;;;;;0.65;0.50;;;27.90;94.70;;;;;;4918609;29;20213;-77
2021/06/11 10:55:49;;;;;;;1.27;0.60;;;27.90;92.80;;;;;;4902403;29;20230;-76
2021/06/11 10:58:33;;;;;;;0.60;0.60;;;27.80;93.30;;;;;;4898402;29;20210;-76
2021/06/11 11:01:27;;;;;;;1.60;0.60;;;27.70;92.70;;;;;;4898339;29;20207;-76
2021/06/11 11:03:54;;;;;;;0.70;0.68;;;27.60;93.20;;;;;;4898397;29;20221;-76
2021/06/11 11:06:31;;;;;;;1.60;0.90;;;27.60;94.50;;;;;;4916850;29;20237;-76
2021/06/11 11:09:02;;;;;;;1.40;0.90;;;27.70;93.90;;;;;;4916876;29;20229;-77
2021/06/11 11:11:46;;;;;;;0.88;0.68;;;27.90;94.20;;;;;;4917262;29;20210;-76
2021/06/11 11:14:41;;;;;;;1.10;0.70;;;27.90;93.00;;;;;;4916912;29;20266;-77
2021/06/11 11:17:09;;;;;;;0.88;0.65;;;27.70;92.80;;;;;;4917465;29;20268;-73
2021/06/11 11:19:57;;;;;;;4.85;1.63;;;27.80;93.90;;;;;;4917949;29;20209;-75
2021/06/11 11:22:35;;;;;;;1.25;0.90;;;27.70;93.30;;;;;;4917917;29;20269;-74
2021/06/11 11:25:06;;;;;;;1.83;0.90;;;27.60;93.90;;;;;;4917594;29;20235;-74
2021/06/11 11:27:33;;;;;;;1.02;0.80;;;27.70;94.00;;;;;;4918185;29;20241;-74
2021/06/11 11:30:00;;;;;;;2.85;0.98;;;27.90;93.20;;;;;;4917990;29;20233;-74
2021/06/11 11:32:27;;;;;;;0.60;0.50;;;28.00;93.20;;;;;;4917813;29;20209;-76
2021/06/11 11:34:54;;;;;;;6.20;0.73;;;27.80;91.90;;;;;;4911885;29;20217;-75
2021/06/11 11:37:20;;;;;;;0.95;0.70;;;27.70;93.30;;;;;;4917316;29;20665;-77
2021/06/11 11:39:47;;;;;;;0.82;0.70;;;27.80;93.20;;;;;;4917204;29;20221;-76
2021/06/11 11:42:16;;;;;;;0.90;0.68;;;27.90;92.40;;;;;;4917567;29;20576;-80
2021/06/11 11:44:42;;;;;;;0.82;0.57;;;28.00;92.90;;;;;;4917625;29;20218;-77
2021/06/11 11:47:09;;;;;;;0.85;0.60;;;28.20;94.00;;;;;;4917535;29;20217;-76
2021/06/11 11:49:36;;;;;;;0.50;0.50;;;28.10;92.40;;;;;;4917755;29;20248;-76
2021/06/11 11:52:03;;;;;;;0.82;0.68;;;28.10;92.40;;;;;;4917197;29;20732;-76
2021/06/11 11:54:31;;;;;;;1.42;0.80;;;28.00;93.30;;;;;;4917147;29;20213;-76
2021/06/11 11:56:58;;;;;;;1.58;0.88;;;27.80;93.70;;;;;;4917323;29;20588;-76
2021/06/11 11:59:25;;;;;;;13.70;1.08;;;27.70;94.90;;;;;;4917047;29;20213;-76
2021/06/11 12:01:52;;;;;;;17.45;3.63;;;27.80;93.40;;;;;;4917185;29;20209;-75
2021/06/11 12:04:19;;;;;;;1.40;0.70;;;27.90;94.70;;;;;;4910576;29;20209;-76
2021/06/11 12:06:45;;;;;;;0.50;0.50;;;28.00;93.80;;;;;;4917341;29;20229;-76
2021/06/11 12:09:12;;;;;;;1.50;0.60;;;28.00;92.30;;;;;;4917271;29;20718;-76
2021/06/11 12:11:39;;;;;;;1.17;0.90;;;28.00;91.90;;;;;;4916917;29;20209;-76
2021/06/11 12:14:05;;;;;;;0.98;0.68;;;28.10;92.50;;;;;;4916949;29;20213;-76
2021/06/11 12:16:33;;;;;;;0.90;0.70;;;28.00;92.80;;;;;;4916396;29;20229;-71
2021/06/11 12:19:00;;;;;;;0.75;0.60;;;27.60;92.90;;;;;;4916975;29;20216;-77
2021/06/11 12:21:26;;;;;;;0.57;0.40;;;27.60;93.50;;;;;;4917220;29;20209;-76
2021/06/11 12:23:52;;;;;;;1.38;0.75;;;27.60;93.50;;;;;;4916884;29;20206;-82
2021/06/11 12:26:19;;;;;;;1.00;0.80;;;27.70;93.40;;;;;;4916603;29;20728;-80
2021/06/11 12:28:45;;;;;;;1.02;0.52;;;27.80;93.50;;;;;;4916826;29;20252;-76
2021/06/11 12:31:12;;;;;;;0.93;0.60;;;27.80;93.80;;;;;;4912700;29;20217;-74
2021/06/11 12:33:40;;;;;;;1.05;0.50;;;27.90;93.70;;;;;;4915440;29;20263;-74
2021/06/11 12:36:06;;;;;;;1.52;0.75;;;27.80;93.20;;;;;;4915796;29;20265;-73
2021/06/11 12:38:33;;;;;;;3.03;0.70;;;27.80;94.70;;;;;;4915582;29;20205;-73
2021/06/11 12:41:00;;;;;;;2.03;0.50;;;27.80;93.30;;;;;;4915180;29;20217;-75
2021/06/11 12:44:14;;;;;;;1.10;0.60;;;27.90;92.30;;;;;;4914731;29;20577;-74
2021/06/11 12:46:18;;;;;;;1.75;0.77;;;28.00;91.90;;;;;;4914865;29;20234;-75
2021/06/11 12:48:46;;;;;;;1.17;0.70;;;27.90;92.60;;;;;;4916099;29;20229;-72
2021/06/11 12:51:12;;;;;;;0.93;0.63;;;27.80;93.70;;;;;;4916788;29;20209;-72
2021/06/11 12:53:38;;;;;;;0.70;0.50;;;27.70;93.00;;;;;;4916688;29;20569;-72
2021/06/11 12:56:05;;;;;;;0.98;0.52;;;27.70;92.40;;;;;;4916188;29;20230;-72
2021/06/11 12:58:31;;;;;;;0.63;0.52;;;27.50;93.10;;;;;;4915888;29;20214;-72
2021/06/11 13:00:58;;;;;;;0.90;0.70;;;27.70;93.80;;;;;;4916686;29;20217;-72
2021/06/11 13:03:24;;;;;;;1.52;0.65;;;27.80;93.60;;;;;;4916284;29;20265;-72
2021/06/11 13:05:52;;;;;;;2.67;0.75;;;27.90;94.10;;;;;;4916810;29;20313;-72
2021/06/11 13:08:19;;;;;;;1.17;0.70;;;28.00;93.10;;;;;;4916836;29;20209;-71
2021/06/11 13:10:46;;;;;;;1.60;0.80;;;27.90;93.00;;;;;;4915936;29;20327;-72
2021/06/11 13:13:13;;;;;;;3.30;0.50;;;27.60;93.40;;;;;;4916625;29;20213;-71
2021/06/11 13:15:39;;;;;;;2.53;0.60;;;27.60;93.30;;;;;;4919429;29;20236;-72
2021/06/11 13:18:06;;;;;;;1.27;0.60;;;27.70;92.40;;;;;;4920344;29;20223;-72
2021/06/11 13:20:33;;;;;;;1.98;0.75;;;27.70;93.10;;;;;;4920440;29;20214;-72
2021/06/11 13:23:00;;;;;;;2.50;0.57;;;27.70;92.30;;;;;;4920100;29;20206;-72
2021/06/11 13:25:27;;;;;;;0.70;0.50;;;27.70;93.40;;;;;;4919797;29;20237;-72
2021/06/11 13:27:53;;;;;;;1.27;0.50;;;27.70;92.00;;;;;;4919827;29;20206;-72
2021/06/11 13:30:19;;;;;;;1.17;0.75;;;27.70;93.20;;;;;;4920184;29;20244;-72
2021/06/11 13:32:46;;;;;;;0.82;0.60;;;27.80;93.50;;;;;;4919373;29;20665;-71
2021/06/11 13:35:14;;;;;;;0.95;0.50;;;27.70;93.60;;;;;;4918935;29;20237;-72
2021/06/11 13:37:40;;;;;;;0.93;0.57;;;27.80;93.80;;;;;;4919442;29;20233;-72
2021/06/11 13:40:09;;;;;;;3.03;0.50;;;28.00;94.50;;;;;;4919566;29;20209;-72
2021/06/11 13:42:35;;;;;;;1.50;1.10;;;28.10;94.30;;;;;;4919714;29;20669;-72
2021/06/11 13:45:02;;;;;;;0.73;0.60;;;28.30;94.60;;;;;;4919724;29;20328;-72
2021/06/11 13:47:28;;;;;;;1.33;0.52;;;28.30;93.50;;;;;;4919420;29;20210;-72
2021/06/11 13:49:54;;;;;;;0.57;0.50;;;28.40;93.50;;;;;;4919701;29;20237;-72
2021/06/11 13:52:21;;;;;;;1.67;1.15;;;28.30;93.40;;;;;;4919550;29;20216;-72
2021/06/11 13:54:47;;;;;;;0.85;0.60;;;28.30;93.00;;;;;;4919297;29;20213;-72
2021/06/11 13:57:14;;;;;;;2.00;0.45;;;28.20;93.50;;;;;;4919647;29;20214;-72
2021/06/11 13:59:41;;;;;;;3.70;0.95;;;28.30;94.20;;;;;;4919550;29;20218;-72
2021/06/11 14:02:08;;;;;;;3.42;0.65;;;28.30;94.40;;;;;;4919595;29;20214;-72
2021/06/11 14:04:35;;;;;;;1.70;0.70;;;28.10;94.10;;;;;;4919468;29;20300;-72
2021/06/11 14:07:01;;;;;;;0.88;0.65;;;28.00;94.40;;;;;;4919122;29;20233;-72
2021/06/11 14:09:27;;;;;;;0.60;0.50;;;27.90;93.80;;;;;;4919381;29;20244;-72
2021/06/11 14:11:54;;;;;;;1.30;0.63;;;27.90;94.10;;;;;;4919003;29;20660;-72
2021/06/11 14:14:22;;;;;;;0.65;0.52;;;27.90;95.10;;;;;;4919615;29;20613;-72
2021/06/11 14:16:48;;;;;;;0.50;0.50;;;27.70;94.20;;;;;;4919224;29;20632;-72
2021/06/11 14:19:14;;;;;;;2.42;0.65;;;27.70;95.50;;;;;;4919259;29;20272;-72
2021/06/11 14:21:41;;;;;;;1.13;0.60;;;27.70;95.20;;;;;;4918934;29;20744;-72
2021/06/11 14:24:11;;;;;;;1.60;0.73;;;27.80;95.80;;;;;;4919082;29;20221;-72
2021/06/11 14:26:38;;;;;;;1.67;0.80;;;27.80;95.40;;;;;;4918339;29;20320;-72
2021/06/11 14:29:04;;;;;;;1.20;0.60;;;27.70;95.00;;;;;;4919003;29;20229;-72
2021/06/11 14:31:32;;;;;;;0.77;0.60;;;27.70;95.80;;;;;;4918892;29;20210;-72
2021/06/11 14:33:58;;;;;;;2.00;0.80;;;27.90;95.20;;;;;;4918935;29;20220;-72
2021/06/11 14:36:25;;;;;;;2.75;0.70;;;27.90;95.10;;;;;;4918720;29;20253;-72
2021/06/11 14:38:51;;;;;;;3.65;0.60;;;27.90;95.10;;;;;;4919039;29;20273;-72
2021/06/11 14:41:17;;;;;;;1.45;0.60;;;28.00;95.10;;;;;;4918529;29;20219;-72
2021/06/11 14:43:43;;;;;;;2.53;0.50;;;28.10;94.60;;;;;;4918442;29;20210;-72
2021/06/11 14:46:10;;;;;;;0.95;0.60;;;28.20;94.80;;;;;;4918294;29;20589;-72
2021/06/11 14:48:37;;;;;;;0.68;0.60;;;28.10;94.10;;;;;;4918116;29;20214;-72
2021/06/11 14:51:04;;;;;;;1.15;0.63;;;28.20;94.70;;;;;;4918455;29;20214;-72
2021/06/11 14:53:32;;;;;;;0.70;0.43;;;28.10;94.20;;;;;;4918412;29;20206;-72
2021/06/11 14:56:02;;;;;;;0.57;0.45;;;28.20;95.70;;;;;;4918298;29;20320;-72
2021/06/11 14:58:29;;;;;;;1.83;0.60;;;28.20;94.20;;;;;;4918460;29;20217;-72
2021/06/11 15:00:56;;;;;;;1.25;0.50;;;28.20;94.80;;;;;;4918255;29;20209;-73
2021/06/11 15:03:23;;;;;;;2.72;0.70;;;28.20;94.50;;;;;;4918265;29;20340;-72
2021/06/11 15:05:51;;;;;;;1.13;0.60;;;28.30;94.90;;;;;;4919002;29;20229;-72
2021/06/11 15:08:17;;;;;;;0.63;0.50;;;28.30;94.50;;;;;;4918315;29;20209;-72
2021/06/11 15:10:43;;;;;;;1.33;0.70;;;28.10;94.40;;;;;;4918062;29;20237;-72
2021/06/11 15:13:13;;;;;;;2.33;0.75;;;28.20;94.20;;;;;;4918150;29;20264;-72
2021/06/11 15:15:41;;;;;;;7.05;0.80;;;28.10;95.30;;;;;;4917838;29;20833;-72
2021/06/11 15:18:08;;;;;;;0.50;0.40;;;28.20;95.50;;;;;;4917972;29;20215;-71
2021/06/11 15:20:35;;;;;;;1.10;0.55;;;28.30;95.20;;;;;;4917977;29;20215;-72
2021/06/11 15:23:04;;;;;;;1.05;0.50;;;28.40;94.80;;;;;;4917852;29;20694;-72
2021/06/11 15:25:30;;;;;;;0.60;0.47;;;28.40;94.50;;;;;;4917848;29;20225;-72
2021/06/11 15:27:56;;;;;;;0.80;0.50;;;28.50;95.40;;;;;;4917868;29;20215;-72
2021/06/11 15:30:23;;;;;;;2.30;0.55;;;28.70;94.00;;;;;;4917238;29;20238;-72
2021/06/11 15:32:49;;;;;;;1.77;0.40;;;28.70;94.90;;;;;;4917426;29;20296;-73
2021/06/11 15:35:17;;;;;;;1.25;0.70;;;28.60;95.20;;;;;;4917878;29;20237;-73
2021/06/11 15:37:43;;;;;;;1.75;0.57;;;28.60;94.40;;;;;;4916961;29;20554;-72
2021/06/11 15:40:13;;;;;;;0.50;0.43;;;28.60;94.30;;;;;;4917380;29;20779;-72
2021/06/11 15:42:39;;;;;;;1.10;0.52;;;28.40;94.70;;;;;;4917528;29;20743;-72
2021/06/11 15:45:08;;;;;;;0.60;0.60;;;28.30;95.00;;;;;;4917262;29;20237;-72
2021/06/11 15:47:34;;;;;;;1.17;0.60;;;28.30;95.50;;;;;;4917305;29;20296;-72
2021/06/11 15:50:01;;;;;;;1.63;0.90;;;28.10;95.40;;;;;;4917515;29;20244;-72
2021/06/11 15:52:27;;;;;;;8.05;0.82;;;28.00;95.70;;;;;;4917438;29;20352;-72
2021/06/11 15:54:54;;;;;;;7.47;0.80;;;28.10;96.30;;;;;;4917087;29;20213;-72
2021/06/11 15:57:22;;;;;;;2.50;0.77;;;28.10;95.90;;;;;;4917371;29;20215;-72
2021/06/11 15:59:49;;;;;;;1.35;0.70;;;28.10;96.20;;;;;;4917308;29;20354;-72
2021/06/11 16:02:15;;;;;;;1.20;0.70;;;28.10;95.90;;;;;;4917009;29;20209;-72
2021/06/11 16:04:42;;;;;;;1.13;0.90;;;28.20;96.00;;;;;;4916737;29;20724;-72
2021/06/11 16:07:08;;;;;;;1.55;0.85;;;28.10;95.80;;;;;;4916905;29;20209;-72
2021/06/11 16:09:34;;;;;;;1.50;0.85;;;27.90;95.70;;;;;;4916735;29;20791;-72
2021/06/11 16:12:01;;;;;;;1.45;0.70;;;27.90;96.10;;;;;;4916750;29;20732;-73
2021/06/11 16:14:28;;;;;;;2.58;1.00;;;28.00;96.00;;;;;;4917287;29;20688;-72
2021/06/11 16:16:55;;;;;;;1.00;0.80;;;28.10;96.30;;;;;;4917113;29;20265;-72
2021/06/11 16:19:21;;;;;;;0.80;0.65;;;28.10;96.20;;;;;;4917059;29;20217;-72
2021/06/11 16:21:47;;;;;;;1.70;0.70;;;28.10;96.70;;;;;;4917123;29;20292;-72
2021/06/11 16:24:14;;;;;;;2.33;0.80;;;28.10;95.90;;;;;;4917088;29;20588;-72
2021/06/11 16:26:40;;;;;;;0.80;0.63;;;28.10;96.70;;;;;;4916595;29;20229;-72
2021/06/11 16:29:06;;;;;;;2.33;0.80;;;28.00;96.20;;;;;;4916686;29;20677;-72
2021/06/11 16:31:34;;;;;;;2.45;0.70;;;27.70;96.40;;;;;;4916862;29;20462;-72
2021/06/11 16:34:01;;;;;;;2.45;0.75;;;27.60;96.60;;;;;;4916847;29;20213;-72
2021/06/11 16:36:27;;;;;;;2.47;0.77;;;27.50;96.30;;;;;;4916827;29;20233;-72
2021/06/11 16:38:53;;;;;;;0.88;0.70;;;27.30;96.50;;;;;;4916899;29;20209;-72
2021/06/11 16:41:20;;;;;;;1.00;0.80;;;27.30;97.10;;;;;;4916884;29;20229;-72
2021/06/11 16:43:47;;;;;;;2.78;0.93;;;27.20;96.40;;;;;;4916965;29;20209;-72
2021/06/11 16:46:13;;;;;;;0.93;0.82;;;27.10;97.10;;;;;;4916560;29;20761;-72
2021/06/11 16:48:42;;;;;;;2.88;0.88;;;27.10;97.00;;;;;;4916448;29;20567;-72
2021/06/11 16:51:08;;;;;;;0.80;0.80;;;27.30;96.70;;;;;;4916600;29;20246;-72
2021/06/11 16:53:34;;;;;;;1.60;0.95;;;27.50;96.60;;;;;;4916534;29;20219;-72
2021/06/11 16:56:01;;;;;;;1.75;0.85;;;27.60;96.80;;;;;;4916205;29;20780;-72
2021/06/11 16:58:27;;;;;;;1.23;0.93;;;27.70;96.70;;;;;;4916740;29;20213;-72
2021/06/11 17:00:53;;;;;;;2.78;1.10;;;27.50;96.20;;;;;;4916459;29;20220;-71
2021/06/11 17:03:20;;;;;;;1.85;1.00;;;27.40;96.70;;;;;;4916594;29;20205;-72
2021/06/11 17:05:47;;;;;;;2.33;1.00;;;27.40;96.90;;;;;;4916444;29;20229;-72
2021/06/11 17:08:14;;;;;;;1.40;1.15;;;27.20;97.20;;;;;;4916603;29;20216;-72
2021/06/11 17:10:41;;;;;;;2.15;1.00;;;27.00;97.70;;;;;;4916143;29;20237;-72
2021/06/11 17:13:07;;;;;;;2.58;0.80;;;26.90;97.70;;;;;;4916683;29;20217;-72
2021/06/11 17:15:34;;;;;;;1.00;0.90;;;27.00;97.60;;;;;;4916170;29;20704;-72
2021/06/11 17:18:00;;;;;;;1.67;1.08;;;26.90;97.80;;;;;;4916595;29;20209;-72
2021/06/11 17:20:29;;;;;;;0.85;0.80;;;26.90;97.80;;;;;;4916613;29;20212;-72
2021/06/11 17:22:58;;;;;;;1.70;0.90;;;27.00;97.60;;;;;;4916406;29;20213;-72
2021/06/11 17:25:27;;;;;;;2.08;0.80;;;26.90;97.70;;;;;;4916343;29;20285;-72
2021/06/11 17:27:53;;;;;;;1.15;0.80;;;26.90;98.40;;;;;;4916400;29;20257;-72
2021/06/11 17:30:22;;;;;;;3.97;0.90;;;26.90;98.10;;;;;;4916250;29;20290;-72
2021/06/11 17:32:49;;;;;;;1.90;1.00;;;26.80;98.50;;;;;;4916208;29;20213;-71
2021/06/11 17:35:18;;;;;;;0.77;0.68;;;26.70;98.60;;;;;;4916606;29;20692;-72
2021/06/11 17:37:45;;;;;;;4.03;1.25;;;26.70;98.10;;;;;;4916334;29;20304;-72
2021/06/11 17:40:14;;;;;;;1.02;0.90;;;26.70;98.80;;;;;;4915689;29;20261;-72
2021/06/11 17:42:41;;;;;;;1.00;0.70;;;26.50;98.40;;;;;;4915560;29;20206;-72
2021/06/11 17:45:08;;;;;;;0.70;0.70;;;26.40;99.00;;;;;;4916328;29;20229;-72
2021/06/11 17:47:34;;;;;;;0.70;0.70;;;26.40;98.80;;;;;;4916234;29;20230;-72
2021/06/11 17:50:00;;;;;;;0.75;0.70;;;26.30;98.40;;;;;;4915912;29;20279;-72
2021/06/11 17:52:27;;;;;;;0.50;0.50;;;26.30;98.80;;;;;;4916403;29;20214;-72
2021/06/11 17:54:53;;;;;;;1.08;0.90;;;26.20;99.20;;;;;;4915931;29;20308;-72
2021/06/11 17:57:22;;;;;;;1.13;0.70;;;26.30;99.00;;;;;;4916225;29;20211;-72
2021/06/11 17:59:49;;;;;;;0.95;0.70;;;26.20;99.10;;;;;;4915977;29;20285;-72
2021/06/11 18:02:16;;;;;;;1.05;0.70;;;26.20;99.00;;;;;;4918436;29;20217;-72
2021/06/11 18:04:44;;;;;;;1.95;0.80;;;26.20;98.90;;;;;;4919230;29;20209;-72
2021/06/11 18:07:12;;;;;;;1.33;0.70;;;26.20;99.70;;;;;;4919412;29;20673;-72
2021/06/11 18:09:41;;;;;;;0.88;0.82;;;26.10;99.50;;;;;;4919616;29;20270;-72
2021/06/11 18:12:16;;;;;;;1.85;0.90;;;26.00;99.30;;;;;;4919532;29;20220;-72
2021/06/11 18:14:54;;;;;;;0.73;0.60;;;25.80;99.90;;;;;;4919234;29;20220;-72
2021/06/11 18:17:22;;;;;;;0.95;0.60;;;25.70;99.90;;;;;;4919137;29;20843;-72
2021/06/11 18:19:48;;;;;;;1.00;0.77;;;25.70;99.90;;;;;;4919298;29;20240;-72
2021/06/11 18:22:15;;;;;;;0.70;0.65;;;25.60;99.80;;;;;;4919195;29;20209;-72
2021/06/11 18:24:41;;;;;;;0.50;0.50;;;25.70;99.90;;;;;;4919072;29;20459;-71
2021/06/11 18:27:10;;;;;;;0.80;0.57;;;25.60;99.80;;;;;;4919083;29;20210;-73
2021/06/11 18:29:42;;;;;;;0.70;0.50;;;25.50;99.90;;;;;;4919121;29;20269;-72
2021/06/11 18:32:31;;;;;;;1.45;0.60;;;25.40;99.90;;;;;;4919107;29;20213;-72
2021/06/11 18:35:05;;;;;;;2.13;0.98;;;25.30;99.90;;;;;;4913024;29;20214;-72
2021/06/11 18:37:34;;;;;;;1.25;0.85;;;25.20;99.90;;;;;;4918723;29;20213;-72
2021/06/11 18:40:03;;;;;;;0.80;0.60;;;25.20;99.90;;;;;;4918756;29;20248;-72
2021/06/11 18:42:29;;;;;;;0.80;0.50;;;25.20;99.90;;;;;;4918879;29;20217;-72
2021/06/11 18:44:56;;;;;;;0.80;0.50;;;25.20;99.90;;;;;;4918494;29;20669;-72
2021/06/11 18:47:23;;;;;;;0.60;0.60;;;25.10;99.90;;;;;;4918802;29;20213;-72
2021/06/11 18:49:53;;;;;;;1.08;0.60;;;25.00;99.90;;;;;;4918716;29;20241;-72
2021/06/11 18:52:26;;;;;;;1.23;0.73;;;25.00;99.90;;;;;;4918774;29;20214;-72
2021/06/11 18:54:53;;;;;;;0.40;0.40;;;25.00;99.90;;;;;;4918298;29;20218;-72
2021/06/11 18:57:19;;;;;;;2.25;0.65;;;25.00;99.90;;;;;;4918887;29;20210;-72
2021/06/11 19:00:00;;;;;;;1.05;0.60;;;24.90;99.90;;;;;;4918285;29;20665;-72
2021/06/11 19:02:26;;;;;;;1.67;0.77;;;24.90;99.90;;;;;;4918564;29;20213;-72